createdAt,value
2019-04-05T00:01:52.011Z,20.97
2019-04-05T00:04:22.932Z,23.63
2019-04-05T00:06:53.621Z,22.47
2019-04-05T00:09:24.452Z,29.37
2019-04-05T00:11:55.032Z,20.37
2019-04-05T00:14:25.531Z,23.10
2019-04-05T00:16:56.091Z,22.93
2019-04-05T00:19:26.691Z,28.53
2019-04-05T00:21:57.471Z,21.93
2019-04-05T00:24:28.061Z,25.93
2019-04-05T00:26:58.641Z,22.63
2019-04-05T00:29:29.286Z,23.37
2019-04-05T00:31:59.971Z,24.17
2019-04-05T00:34:30.632Z,23.33
2019-04-05T00:37:01.160Z,25.80
2019-04-05T00:39:31.782Z,25.47
2019-04-05T00:42:02.611Z,27.77
2019-04-05T00:44:33.128Z,20.47
2019-04-05T00:47:03.812Z,25.10
2019-04-05T00:49:34.436Z,28.27
2019-04-05T00:52:05.150Z,21.97
2019-04-05T00:54:35.652Z,24.70
2019-04-05T00:57:06.305Z,26.53
2019-04-05T00:59:36.914Z,27.10
2019-04-05T01:02:07.930Z,24.23
2019-04-05T01:04:38.551Z,27.10
2019-04-05T01:07:09.140Z,27.70
2019-04-05T01:09:39.826Z,31.27
2019-04-05T01:12:10.441Z,24.57
2019-04-05T01:14:41.064Z,27.77
2019-04-05T01:17:24.205Z,27.07
2019-04-05T01:19:47.481Z,26.27
2019-04-05T01:22:19.156Z,26.20
2019-04-05T01:24:49.740Z,28.13
2019-04-05T01:27:21.015Z,28.97
2019-04-05T01:29:51.601Z,27.07
2019-04-05T01:32:22.130Z,30.03
2019-04-05T01:34:52.734Z,28.73
2019-04-05T01:37:23.405Z,32.17
2019-04-05T01:39:54.033Z,28.47
2019-04-05T01:42:24.994Z,27.90
2019-04-05T01:44:56.266Z,25.13
2019-04-05T01:47:26.941Z,26.87
2019-04-05T01:49:57.567Z,28.87
2019-04-05T01:52:28.131Z,26.63
2019-04-05T01:54:58.731Z,27.87
2019-04-05T01:57:29.277Z,26.83
2019-04-05T01:59:59.796Z,28.93
2019-04-05T02:02:30.411Z,26.53
2019-04-05T02:05:01.021Z,26.43
2019-04-05T02:07:31.874Z,27.33
2019-04-05T02:10:02.540Z,31.33
2019-04-05T02:12:33.164Z,28.50
2019-04-05T02:15:03.893Z,25.80
2019-04-05T02:17:35.930Z,29.23
2019-04-05T02:20:07.666Z,30.10
2019-04-05T02:22:38.308Z,34.10
2019-04-05T02:25:09.061Z,27.33
2019-04-05T02:27:39.578Z,27.33
2019-04-05T02:30:10.603Z,25.50
2019-04-05T02:32:41.253Z,27.27
2019-04-05T02:35:12.562Z,28.93
2019-04-05T02:37:43.334Z,31.23
2019-04-05T02:40:16.507Z,28.23
2019-04-05T02:42:49.026Z,30.67
2019-04-05T02:45:20.443Z,26.77
2019-04-05T02:47:55.803Z,31.23
2019-04-05T02:50:29.372Z,26.67
2019-04-05T02:53:04.946Z,25.40
2019-04-05T02:55:37.262Z,28.53
2019-04-05T02:58:10.101Z,28.93
2019-04-05T03:00:41.370Z,28.13
2019-04-05T03:03:12.346Z,24.50
2019-04-05T03:05:43.403Z,30.10
2019-04-05T03:08:14.367Z,25.23
2019-04-05T03:11:10.121Z,27.67
2019-04-05T03:13:53.256Z,29.90
2019-04-05T03:16:40.723Z,30.90
2019-04-05T03:19:14.935Z,28.13
2019-04-05T03:21:52.016Z,31.73
2019-04-05T03:24:29.554Z,28.90
2019-04-05T03:27:07.203Z,25.80
2019-04-05T03:29:41.067Z,28.53
2019-04-05T03:32:12.099Z,28.37
2019-04-05T03:34:42.978Z,28.27
2019-04-05T03:37:14.042Z,26.90
2019-04-05T03:39:45.122Z,26.87
2019-04-05T03:42:16.434Z,29.77
2019-04-05T03:44:47.178Z,28.47
2019-04-05T03:47:17.903Z,27.20
2019-04-05T03:49:48.470Z,30.13
2019-04-05T03:52:19.343Z,29.37
2019-04-05T03:54:50.482Z,29.77
2019-04-05T03:57:21.161Z,31.73
2019-04-05T03:59:51.792Z,33.57
2019-04-05T04:02:23.667Z,27.60
2019-04-05T04:04:54.492Z,26.53
2019-04-05T04:07:25.427Z,26.33
2019-04-05T04:09:56.052Z,31.97
2019-04-05T04:12:27.036Z,30.50
2019-04-05T04:15:14.077Z,29.20
2019-04-05T04:17:47.242Z,26.97
2019-04-05T04:20:45.601Z,27.90
2019-04-05T04:23:16.707Z,29.83
2019-04-05T04:25:48.087Z,30.53
2019-04-05T04:28:19.128Z,30.30
2019-04-05T04:30:49.870Z,33.40
2019-04-05T04:33:21.126Z,27.00
2019-04-05T04:35:53.445Z,32.03
2019-04-05T04:38:24.949Z,32.27
2019-04-05T04:40:56.636Z,35.23
2019-04-05T04:43:28.539Z,27.73
2019-04-05T04:45:59.481Z,33.90
2019-04-05T04:48:31.203Z,37.30
2019-04-05T04:51:02.727Z,33.30
2019-04-05T04:53:34.436Z,34.97
2019-04-05T04:56:05.264Z,32.20
2019-04-05T04:58:36.626Z,31.70
2019-04-05T05:01:07.525Z,31.27
2019-04-05T05:03:38.741Z,35.40
2019-04-05T05:06:09.704Z,34.33
2019-04-05T05:08:40.813Z,30.90
2019-04-05T05:11:14.793Z,33.17
2019-04-05T05:13:44.936Z,34.83
2019-04-05T05:16:15.916Z,35.37
2019-04-05T05:18:46.632Z,31.73
2019-04-05T05:21:17.530Z,30.57
2019-04-05T05:23:48.387Z,27.77
2019-04-05T05:26:19.481Z,31.20
2019-04-05T05:28:50.377Z,34.47
2019-04-05T05:31:21.427Z,30.13
2019-04-05T05:34:07.380Z,33.43
2019-04-05T05:36:39.529Z,32.70
2019-04-05T05:39:10.832Z,31.23
2019-04-05T05:41:41.955Z,31.53
2019-04-05T05:44:12.713Z,35.70
2019-04-05T05:46:43.528Z,34.13
2019-04-05T05:49:20.431Z,28.93
2019-04-05T05:51:51.632Z,29.40
2019-04-05T05:54:22.391Z,36.97
2019-04-05T05:56:53.281Z,34.50
2019-04-05T05:59:24.091Z,33.13
2019-04-05T06:01:54.921Z,32.23
2019-04-05T06:04:25.675Z,31.93
2019-04-05T06:06:56.542Z,28.67
2019-04-05T06:09:32.413Z,30.67
2019-04-05T06:12:08.201Z,29.77
2019-04-05T06:14:42.610Z,32.90
2019-04-05T06:17:13.554Z,28.90
2019-04-05T06:19:44.124Z,32.30
2019-04-05T06:22:14.878Z,30.17
2019-04-05T06:24:45.813Z,32.97
2019-04-05T06:27:16.416Z,30.50
2019-04-05T06:29:47.043Z,30.87
2019-04-05T06:32:17.767Z,28.47
2019-04-05T06:34:48.406Z,29.43
2019-04-05T06:37:19.555Z,30.43
2019-04-05T06:39:50.516Z,32.63
2019-04-05T06:42:21.461Z,34.03
2019-04-05T06:44:52.043Z,33.93
2019-04-05T06:47:22.747Z,32.70
2019-04-05T06:49:53.443Z,25.90
2019-04-05T06:52:24.041Z,31.13
2019-04-05T06:54:54.718Z,30.37
2019-04-05T06:57:25.944Z,31.40
2019-04-05T06:59:56.745Z,34.40
2019-04-05T07:02:27.510Z,29.87
2019-04-05T07:04:58.143Z,27.70
2019-04-05T07:07:29.157Z,31.07
2019-04-05T07:10:00.427Z,34.33
2019-04-05T07:12:31.042Z,29.90
2019-04-05T07:15:01.672Z,31.57
2019-04-05T07:17:32.786Z,30.00
2019-04-05T07:20:03.333Z,31.57
2019-04-05T07:22:39.083Z,26.43
2019-04-05T07:25:07.223Z,28.73
2019-04-05T07:27:37.938Z,25.80
2019-04-05T07:30:08.928Z,28.40
2019-04-05T07:32:41.941Z,30.70
2019-04-05T07:35:12.845Z,31.47
2019-04-05T07:37:43.882Z,27.83
2019-04-05T07:40:14.933Z,35.80
2019-04-05T07:42:45.711Z,30.57
2019-04-05T07:45:16.627Z,32.33
2019-04-05T07:47:47.246Z,32.20
2019-04-05T07:50:18.290Z,30.77
2019-04-05T07:52:49.121Z,25.33
2019-04-05T07:55:19.833Z,24.67
2019-04-05T07:57:50.541Z,27.00
2019-04-05T08:00:59.540Z,21.73
2019-04-05T08:03:30.343Z,24.13
2019-04-05T08:06:01.101Z,24.33
2019-04-05T08:09:08.722Z,27.07
2019-04-05T08:11:42.533Z,22.47
2019-04-05T08:14:17.739Z,22.57
2019-04-05T08:16:46.965Z,22.23
2019-04-05T08:19:17.589Z,20.97
2019-04-05T08:21:48.325Z,21.30
2019-04-05T08:24:19.021Z,32.63
2019-04-05T08:26:50.286Z,21.47
2019-04-05T08:29:21.195Z,21.77
2019-04-05T08:31:51.852Z,13.77
2019-04-05T08:34:22.502Z,17.30
2019-04-05T08:36:53.337Z,16.07
2019-04-05T08:39:24.220Z,14.67
2019-04-05T08:41:55.532Z,14.37
2019-04-05T08:44:26.086Z,14.37
2019-04-05T08:46:56.704Z,16.50
2019-04-05T08:49:27.456Z,17.37
2019-04-05T08:51:57.975Z,15.43
2019-04-05T08:54:32.701Z,17.43
2019-04-05T08:57:01.589Z,15.90
2019-04-05T08:59:32.142Z,15.40
2019-04-05T09:02:02.946Z,13.93
2019-04-05T09:04:34.637Z,20.07
2019-04-05T09:07:05.521Z,14.87
2019-04-05T09:09:36.125Z,17.83
2019-04-05T09:12:06.958Z,18.50
2019-04-05T09:14:37.692Z,13.13
2019-04-05T09:17:08.433Z,16.90
2019-04-05T09:19:38.931Z,14.53
2019-04-05T09:22:09.634Z,14.90
2019-04-05T09:24:40.151Z,16.00
2019-04-05T09:27:10.862Z,13.10
2019-04-05T09:29:42.434Z,13.80
2019-04-05T09:32:13.035Z,13.27
2019-04-05T09:34:43.727Z,15.73
2019-04-05T09:37:14.253Z,10.77
2019-04-05T09:39:44.957Z,12.80
2019-04-05T09:42:15.743Z,12.93
2019-04-05T09:44:46.277Z,13.83
2019-04-05T09:47:16.976Z,14.27
2019-04-05T09:49:47.594Z,13.47
2019-04-05T09:52:18.409Z,13.17
2019-04-05T09:54:49.360Z,10.27
2019-04-05T09:57:20.219Z,11.33
2019-04-05T09:59:50.911Z,11.70
2019-04-05T10:02:21.691Z,10.60
2019-04-05T10:04:52.392Z,11.97
2019-04-05T10:07:23.062Z,13.37
2019-04-05T10:09:53.845Z,12.70
2019-04-05T10:12:24.466Z,15.40
2019-04-05T10:14:55.162Z,11.23
2019-04-05T10:17:25.612Z,13.23
2019-04-05T10:19:56.221Z,10.07
2019-04-05T10:22:26.897Z,14.07
2019-04-05T10:24:57.452Z,16.83
2019-04-05T10:27:28.090Z,11.33
2019-04-05T10:29:58.695Z,14.73
2019-04-05T10:32:29.353Z,11.10
2019-04-05T10:34:59.930Z,13.90
2019-04-05T10:37:30.726Z,13.53
2019-04-05T10:40:01.568Z,12.17
2019-04-05T10:42:36.883Z,11.17
2019-04-05T10:45:11.866Z,14.97
2019-04-05T10:47:42.505Z,13.80
2019-04-05T10:50:14.826Z,13.33
2019-04-05T10:52:45.436Z,11.90
2019-04-05T10:55:17.109Z,26.30
2019-04-05T10:57:47.708Z,14.10
2019-04-05T11:00:19.850Z,15.53
2019-04-05T11:02:50.538Z,14.27
2019-04-05T11:05:21.181Z,13.70
2019-04-05T11:07:51.998Z,15.27
2019-04-05T11:10:22.794Z,10.90
2019-04-05T11:12:53.414Z,12.03
2019-04-05T11:15:24.110Z,12.20
2019-04-05T11:17:54.873Z,13.20
2019-04-05T11:20:25.936Z,9.20
2019-04-05T11:22:56.716Z,12.43
2019-04-05T11:25:27.420Z,11.87
2019-04-05T11:27:58.511Z,9.60
2019-04-05T11:30:43.543Z,9.03
2019-04-05T11:33:14.809Z,8.37
2019-04-05T11:35:45.915Z,7.10
2019-04-05T11:38:17.568Z,10.03
2019-04-05T11:40:48.735Z,9.43
2019-04-05T11:43:20.500Z,21.73
2019-04-05T11:45:52.041Z,8.47
2019-04-05T11:48:22.833Z,8.30
2019-04-05T11:50:53.694Z,6.80
2019-04-05T11:53:24.482Z,8.13
2019-04-05T11:55:55.436Z,5.50
2019-04-05T11:58:26.015Z,7.10
2019-04-05T12:01:02.369Z,7.90
2019-04-05T12:03:33.151Z,28.57
2019-04-05T12:06:04.099Z,9.70
2019-04-05T12:08:34.862Z,12.00
2019-04-05T12:11:05.666Z,8.60
2019-04-05T12:13:36.292Z,18.77
2019-04-05T12:16:10.288Z,8.20
2019-04-05T12:18:39.355Z,7.90
2019-04-05T12:21:09.958Z,10.73
2019-04-05T12:23:40.567Z,8.80
2019-04-05T12:26:11.290Z,8.40
2019-04-05T12:28:41.865Z,6.97
2019-04-05T12:31:12.500Z,7.47
2019-04-05T12:33:42.990Z,7.03
2019-04-05T12:36:13.931Z,8.90
2019-04-05T12:38:44.774Z,7.23
2019-04-05T12:41:18.129Z,10.30
2019-04-05T12:43:50.691Z,7.97
2019-04-05T12:46:20.065Z,8.20
2019-04-05T12:48:50.733Z,7.70
2019-04-05T12:51:21.373Z,6.73
2019-04-05T12:53:52.041Z,6.57
2019-04-05T12:56:24.381Z,6.63
2019-04-05T12:58:55.976Z,9.33
2019-04-05T13:01:27.335Z,6.63
2019-04-05T13:03:58.805Z,21.83
2019-04-05T13:06:29.580Z,5.63
2019-04-05T13:09:00.161Z,15.43
2019-04-05T13:11:30.865Z,9.33
2019-04-05T13:14:01.513Z,8.70
2019-04-05T13:16:32.033Z,7.57
2019-04-05T13:19:02.821Z,10.27
2019-04-05T13:21:33.454Z,6.77
2019-04-05T13:24:06.878Z,10.77
2019-04-05T13:26:37.048Z,7.00
2019-04-05T13:29:07.890Z,9.00
2019-04-05T13:31:38.504Z,7.83
2019-04-05T13:34:09.302Z,11.07
2019-04-05T13:36:39.866Z,10.00
2019-04-05T13:39:11.052Z,7.27
2019-04-05T13:41:41.632Z,10.33
2019-04-05T13:44:12.272Z,6.70
2019-04-05T13:46:43.106Z,11.33
2019-04-05T13:49:13.961Z,10.90
2019-04-05T13:51:44.626Z,8.40
2019-04-05T13:54:15.296Z,9.47
2019-04-05T13:56:49.086Z,8.13
2019-04-05T13:59:19.771Z,9.93
2019-04-05T14:01:51.522Z,9.10
2019-04-05T14:04:22.313Z,12.13
2019-04-05T14:06:54.201Z,8.57
2019-04-05T14:09:25.191Z,10.50
2019-04-05T14:11:55.990Z,9.77
2019-04-05T14:14:28.380Z,9.47
2019-04-05T14:16:59.126Z,7.53
2019-04-05T14:19:30.127Z,10.73
2019-04-05T14:22:08.436Z,9.03
2019-04-05T14:24:33.367Z,7.87
2019-04-05T14:27:04.193Z,11.13
2019-04-05T14:29:35.209Z,12.23
2019-04-05T14:32:19.862Z,13.33
2019-04-05T14:34:38.516Z,12.60
2019-04-05T14:37:09.675Z,12.03
2019-04-05T14:39:40.221Z,11.90
2019-04-05T14:42:14.423Z,10.33
2019-04-05T14:44:43.421Z,12.10
2019-04-05T14:47:14.135Z,9.13
2019-04-05T14:49:45.041Z,9.80
2019-04-05T14:52:16.027Z,8.53
2019-04-05T14:54:46.771Z,13.17
2019-04-05T14:57:17.516Z,12.87
2019-04-05T14:59:48.409Z,13.20
2019-04-05T15:02:19.152Z,11.83
2019-04-05T15:04:49.857Z,11.80
2019-04-05T15:07:20.852Z,14.03
2019-04-05T15:09:54.660Z,13.40
2019-04-05T15:12:28.893Z,11.10
2019-04-05T15:14:57.130Z,15.80
2019-04-05T15:17:27.821Z,15.30
2019-04-05T15:19:58.496Z,15.27
2019-04-05T15:22:29.266Z,17.60
2019-04-05T15:25:01.022Z,11.13
2019-04-05T15:27:32.111Z,13.60
2019-04-05T15:30:02.920Z,12.23
2019-04-05T15:32:33.931Z,13.63
2019-04-05T15:35:05.212Z,16.37
2019-04-05T15:37:37.454Z,14.00
2019-04-05T15:40:09.346Z,12.13
2019-04-05T15:42:40.030Z,14.73
2019-04-05T15:45:15.728Z,10.17
2019-04-05T15:47:43.961Z,12.43
2019-04-05T15:50:14.890Z,16.73
2019-04-05T15:52:45.841Z,12.67
2019-04-05T15:55:16.622Z,13.70
2019-04-05T15:57:47.420Z,19.33
2019-04-05T16:00:25.840Z,13.83
2019-04-05T16:02:55.626Z,14.33
2019-04-05T16:05:26.371Z,17.23
2019-04-05T16:07:57.033Z,15.07
2019-04-05T16:10:27.759Z,14.30
2019-04-05T16:12:58.690Z,12.53
2019-04-05T16:15:29.545Z,13.80
2019-04-05T16:18:00.321Z,12.33
2019-04-05T16:20:31.041Z,12.13
2019-04-05T16:23:01.851Z,11.63
2019-04-05T16:25:32.522Z,12.43
2019-04-05T16:28:03.216Z,13.30
2019-04-05T16:30:33.890Z,15.10
2019-04-05T16:33:04.557Z,11.50
2019-04-05T16:35:35.360Z,13.47
2019-04-05T16:38:06.147Z,12.07
2019-04-05T16:40:37.447Z,11.17
2019-04-05T16:43:08.716Z,13.07
2019-04-05T16:45:39.436Z,16.70
2019-04-05T16:48:10.049Z,14.93
2019-04-05T16:50:42.296Z,13.57
2019-04-05T16:53:13.272Z,13.47
2019-04-05T16:55:44.296Z,11.73
2019-04-05T16:58:17.846Z,11.33
2019-04-05T17:00:48.818Z,14.37
2019-04-05T17:03:19.545Z,15.17
2019-04-05T17:05:52.353Z,13.37
2019-04-05T17:08:23.171Z,13.90
2019-04-05T17:10:53.808Z,13.00
2019-04-05T17:13:24.663Z,12.80
2019-04-05T17:15:55.334Z,15.63
2019-04-05T17:18:26.748Z,12.77
2019-04-05T17:20:58.251Z,14.33
2019-04-05T17:23:29.299Z,17.20
2019-04-05T17:26:01.000Z,21.77
2019-04-05T17:28:31.697Z,26.47
2019-04-05T17:31:10.948Z,30.03
2019-04-05T17:33:42.177Z,30.27
2019-04-05T17:36:18.563Z,30.57
2019-04-05T17:38:49.935Z,28.70
2019-04-05T17:41:23.360Z,24.63
2019-04-05T17:43:55.460Z,26.27
2019-04-05T17:46:26.152Z,22.50
2019-04-05T17:48:56.846Z,22.03
2019-04-05T17:51:27.755Z,18.10
2019-04-05T17:53:58.400Z,18.30
2019-04-05T17:56:29.402Z,17.07
2019-04-05T17:59:00.248Z,16.03
2019-04-05T18:01:32.036Z,13.43
2019-04-05T18:04:02.800Z,16.33
2019-04-05T18:06:34.409Z,16.47
2019-04-05T18:09:06.206Z,20.00
2019-04-05T18:11:37.146Z,18.77
2019-04-05T18:14:08.042Z,17.40
2019-04-05T18:16:42.031Z,17.13
2019-04-05T18:19:12.816Z,14.37
2019-04-05T18:21:43.811Z,13.27
2019-04-05T18:24:17.911Z,14.73
2019-04-05T18:26:48.651Z,12.87
2019-04-05T18:29:19.596Z,12.37
2019-04-05T18:31:50.246Z,13.47
2019-04-05T18:34:22.367Z,12.33
2019-04-05T18:36:53.708Z,12.13
2019-04-05T18:39:26.521Z,13.23
2019-04-05T18:41:58.505Z,15.30
2019-04-05T18:44:31.210Z,11.30
2019-04-05T18:47:07.699Z,14.27
2019-04-05T18:49:41.211Z,14.80
2019-04-05T18:52:19.756Z,11.60
2019-04-05T18:54:50.386Z,13.27
2019-04-05T18:57:25.354Z,11.13
2019-04-05T18:59:57.046Z,11.87
2019-04-05T19:02:29.956Z,12.03
2019-04-05T19:05:04.203Z,10.77
2019-04-05T19:07:38.286Z,14.47
2019-04-05T19:10:09.334Z,12.87
2019-04-05T19:12:40.071Z,13.83
2019-04-05T19:15:13.186Z,12.87
2019-04-05T19:17:43.967Z,10.87
2019-04-05T19:20:15.181Z,11.00
2019-04-05T19:22:50.058Z,12.87
2019-04-05T19:25:21.055Z,17.17
2019-04-05T19:27:55.148Z,14.43
2019-04-05T19:48:50.326Z,17.30
2019-04-05T19:51:21.185Z,14.43
2019-04-05T19:54:01.361Z,19.33
2019-04-05T19:56:31.002Z,18.47
2019-04-05T19:59:03.716Z,20.60
2019-04-05T20:01:36.989Z,26.73
2019-04-05T20:04:10.831Z,20.63
2019-04-05T20:06:45.163Z,18.60
2019-04-05T20:09:19.117Z,17.60
2019-04-05T20:11:51.116Z,21.73
2019-04-05T20:14:22.082Z,23.33
2019-04-05T20:16:56.999Z,21.53
2019-04-05T20:19:34.341Z,22.93
2019-04-05T20:22:05.134Z,17.23
2019-04-05T20:24:39.455Z,23.27
2019-04-05T20:27:14.758Z,25.90
2019-04-05T20:29:46.674Z,21.00
2019-04-05T20:32:17.371Z,22.87
2019-04-05T20:34:48.015Z,24.10
2019-04-05T20:37:18.687Z,21.83
2019-04-05T20:39:49.199Z,21.33
2019-04-05T20:42:19.860Z,20.93
2019-04-05T20:44:50.636Z,19.37
2019-04-05T20:47:21.332Z,20.47
2019-04-05T20:49:51.961Z,22.03
2019-04-05T20:52:22.570Z,22.73
2019-04-05T20:54:53.127Z,22.00
2019-04-05T20:57:28.068Z,27.20
2019-04-05T20:59:58.699Z,23.27
2019-04-05T21:02:29.283Z,30.30
2019-04-05T21:04:59.998Z,24.27
2019-04-05T21:07:31.012Z,23.67
2019-04-05T21:10:01.793Z,25.00
2019-04-05T21:12:32.414Z,28.87
2019-04-05T21:15:03.041Z,22.90
2019-04-05T21:17:33.662Z,25.73
2019-04-05T21:20:04.342Z,27.47
2019-04-05T21:22:35.137Z,20.47
2019-04-05T21:25:06.634Z,24.00
2019-04-05T21:27:39.150Z,25.00
2019-04-05T21:30:10.454Z,25.23
2019-04-05T21:32:41.130Z,25.00
2019-04-05T21:35:11.766Z,24.53
2019-04-05T21:37:42.579Z,23.57
2019-04-05T21:40:13.415Z,24.60
2019-04-05T21:42:44.099Z,24.30
2019-04-05T21:45:15.157Z,24.60
2019-04-05T21:47:45.704Z,26.83
2019-04-05T21:50:16.290Z,25.77
2019-04-05T21:52:47.096Z,29.63
2019-04-05T21:55:17.861Z,22.37
2019-04-05T21:57:48.455Z,25.80
2019-04-05T22:00:26.771Z,23.90
2019-04-05T22:02:57.460Z,23.20
2019-04-05T22:05:28.133Z,23.23
2019-04-05T22:07:58.762Z,27.77
2019-04-05T22:10:29.465Z,20.70
2019-04-05T22:13:00.075Z,25.17
2019-04-05T22:15:30.887Z,24.77
2019-04-05T22:18:01.926Z,26.90
2019-04-05T22:20:32.547Z,28.70
2019-04-05T22:23:03.336Z,25.20
2019-04-05T22:25:34.082Z,26.33
2019-04-05T22:28:04.840Z,25.60
2019-04-05T22:30:37.033Z,28.23
2019-04-05T22:33:07.793Z,30.90
2019-04-05T22:35:38.571Z,28.07
2019-04-05T22:38:09.135Z,28.40
2019-04-05T22:40:39.861Z,24.90
2019-04-05T22:43:10.456Z,27.53
2019-04-05T22:45:41.090Z,25.70
2019-04-05T22:48:11.815Z,30.70
2019-04-05T22:50:42.441Z,25.63
2019-04-05T22:53:13.094Z,24.47
2019-04-05T22:55:43.682Z,24.70
2019-04-05T22:58:14.321Z,28.57
2019-04-05T23:00:44.877Z,25.93
2019-04-05T23:03:15.612Z,25.27
2019-04-05T23:05:46.281Z,30.00
2019-04-05T23:08:17.017Z,28.80
2019-04-05T23:10:47.761Z,27.83
2019-04-05T23:13:18.362Z,29.07
2019-04-05T23:15:48.991Z,26.87
2019-04-05T23:18:19.800Z,30.33
2019-04-05T23:20:50.426Z,27.57
2019-04-05T23:23:21.103Z,32.63
2019-04-05T23:25:52.924Z,30.70
2019-04-05T23:28:23.475Z,32.03
2019-04-05T23:30:54.204Z,30.77
2019-04-05T23:33:24.830Z,32.90
2019-04-05T23:35:55.564Z,32.33
2019-04-05T23:38:26.329Z,27.47
2019-04-05T23:40:57.111Z,28.00
2019-04-05T23:43:27.831Z,29.40
2019-04-05T23:45:58.293Z,32.20
2019-04-05T23:48:28.926Z,27.37
2019-04-05T23:50:59.502Z,27.83
2019-04-05T23:53:30.042Z,32.43
2019-04-05T23:56:00.556Z,31.27
2019-04-05T23:58:37.551Z,31.00
